createdAt,value
2023-05-21T00:01:25.799Z,14.80
2023-05-21T00:03:52.467Z,15.23
2023-05-21T00:06:20.908Z,14.95
2023-05-21T00:08:47.638Z,14.82
2023-05-21T00:11:14.143Z,14.65
2023-05-21T00:13:40.705Z,14.57
2023-05-21T00:16:07.741Z,15.63
2023-05-21T00:18:34.386Z,14.73
2023-05-21T00:21:01.661Z,15.13
2023-05-21T00:23:28.218Z,15.60
2023-05-21T00:25:54.740Z,15.32
2023-05-21T00:28:21.223Z,15.50
2023-05-21T00:30:47.734Z,14.27
2023-05-21T00:33:14.679Z,15.23
2023-05-21T00:35:41.544Z,15.02
2023-05-21T00:38:08.577Z,15.68
2023-05-21T00:40:35.889Z,16.73
2023-05-21T00:43:02.604Z,16.17
2023-05-21T00:45:29.602Z,17.08
2023-05-21T00:47:56.378Z,15.50
2023-05-21T00:50:23.490Z,16.40
2023-05-21T00:52:50.167Z,15.85
2023-05-21T00:55:16.812Z,17.67
2023-05-21T00:57:45.955Z,17.50
2023-05-21T01:00:14.377Z,17.58
2023-05-21T01:02:41.033Z,16.40
2023-05-21T01:05:07.983Z,15.30
2023-05-21T01:07:36.432Z,16.00
2023-05-21T01:10:04.217Z,16.83
2023-05-21T01:12:32.296Z,16.95
2023-05-21T01:15:00.617Z,18.52
2023-05-21T01:17:28.786Z,17.08
2023-05-21T01:19:59.919Z,18.85
2023-05-21T01:24:55.784Z,17.63
2023-05-21T01:27:22.860Z,17.90
2023-05-21T01:29:50.131Z,17.48
2023-05-21T01:32:27.361Z,17.70
2023-05-21T01:39:10.002Z,18.63
2023-05-21T01:41:38.662Z,18.63
2023-05-21T01:44:07.028Z,18.58
2023-05-21T01:46:35.952Z,18.35
2023-05-21T01:49:03.095Z,18.42
2023-05-21T01:51:30.152Z,19.27
2023-05-21T01:53:56.642Z,18.70
2023-05-21T01:56:25.931Z,19.75
2023-05-21T01:58:52.678Z,19.02
2023-05-21T02:01:20.256Z,18.05
2023-05-21T02:03:46.899Z,20.00
2023-05-21T02:06:13.487Z,20.40
2023-05-21T02:08:40.289Z,19.17
2023-05-21T02:11:06.896Z,19.40
2023-05-21T02:13:33.824Z,18.60
2023-05-21T02:16:01.536Z,19.73
2023-05-21T02:18:29.272Z,19.90
2023-05-21T02:20:56.277Z,21.27
2023-05-21T02:23:22.826Z,19.67
2023-05-21T02:25:49.338Z,19.70
2023-05-21T02:28:15.900Z,20.10
2023-05-21T02:30:42.414Z,20.23
2023-05-21T02:33:09.180Z,20.73
2023-05-21T02:35:36.054Z,21.33
2023-05-21T02:38:03.064Z,21.63
2023-05-21T02:40:29.755Z,25.77
2023-05-21T02:42:56.267Z,21.73
2023-05-21T02:45:22.851Z,22.90
2023-05-21T02:47:49.515Z,25.88
2023-05-21T02:50:18.725Z,22.45
2023-05-21T02:52:52.482Z,23.10
2023-05-21T02:55:19.324Z,24.02
2023-05-21T02:57:45.832Z,24.88
2023-05-21T03:00:13.315Z,22.45
2023-05-21T03:02:41.458Z,22.15
2023-05-21T03:05:08.397Z,22.60
2023-05-21T03:07:34.891Z,23.67
2023-05-21T03:10:01.440Z,23.50
2023-05-21T03:12:27.934Z,23.15
2023-05-21T03:14:54.424Z,23.13
2023-05-21T03:17:22.210Z,23.33
2023-05-21T03:19:49.403Z,24.25
2023-05-21T03:22:16.258Z,25.08
2023-05-21T03:24:42.768Z,23.55
2023-05-21T03:27:09.708Z,25.15
2023-05-21T03:29:36.276Z,24.65
2023-05-21T03:32:03.437Z,25.38
2023-05-21T03:34:34.312Z,24.23
2023-05-21T03:37:00.878Z,24.15
2023-05-21T03:39:28.158Z,24.25
2023-05-21T03:41:55.955Z,24.45
2023-05-21T03:44:32.550Z,25.00
2023-05-21T03:47:15.335Z,24.70
2023-05-21T03:49:41.856Z,24.85
2023-05-21T03:52:08.729Z,27.30
2023-05-21T03:54:35.909Z,25.58
2023-05-21T03:57:06.148Z,25.83
2023-05-21T03:59:33.184Z,25.88
2023-05-21T04:02:00.327Z,26.52
2023-05-21T04:04:29.293Z,25.83
2023-05-21T04:06:56.012Z,25.48
2023-05-21T04:09:23.045Z,26.80
2023-05-21T04:11:51.763Z,23.95
2023-05-21T04:14:18.305Z,24.67
2023-05-21T04:16:44.904Z,25.85
2023-05-21T04:19:11.484Z,25.23
2023-05-21T04:21:38.094Z,25.65
2023-05-21T04:24:05.429Z,24.75
2023-05-21T04:27:01.251Z,25.17
2023-05-21T04:29:30.033Z,25.17
2023-05-21T04:31:56.911Z,24.17
2023-05-21T04:34:23.642Z,23.98
2023-05-21T04:36:51.921Z,24.35
2023-05-21T04:39:18.453Z,22.58
2023-05-21T04:41:45.147Z,24.33
2023-05-21T04:44:14.704Z,23.02
2023-05-21T04:46:42.934Z,23.85
2023-05-21T04:49:10.139Z,23.73
2023-05-21T04:51:37.822Z,23.77
2023-05-21T04:54:04.417Z,23.42
2023-05-21T04:56:31.861Z,24.23
2023-05-21T04:58:58.909Z,23.10
2023-05-21T05:01:27.204Z,20.88
2023-05-21T05:03:54.033Z,22.15
2023-05-21T05:06:21.413Z,23.42
2023-05-21T05:08:48.332Z,22.95
2023-05-21T05:11:15.968Z,23.42
2023-05-21T05:13:42.488Z,23.15
2023-05-21T05:16:09.115Z,23.27
2023-05-21T05:18:36.445Z,22.75
2023-05-21T05:21:03.141Z,22.30
2023-05-21T05:23:30.184Z,22.77
2023-05-21T05:25:56.726Z,23.02
2023-05-21T05:28:23.270Z,23.15
2023-05-21T05:30:49.946Z,22.70
2023-05-21T05:33:21.930Z,22.65
2023-05-21T05:35:49.234Z,22.40
2023-05-21T05:38:17.028Z,21.63
2023-05-21T05:40:43.584Z,21.92
2023-05-21T05:43:10.109Z,21.33
2023-05-21T05:45:36.969Z,22.95
2023-05-21T05:48:09.530Z,21.65
2023-05-21T05:50:36.198Z,21.33
2023-05-21T05:53:02.933Z,23.13
2023-05-21T05:55:29.668Z,21.23
2023-05-21T05:57:56.196Z,22.17
2023-05-21T06:00:23.087Z,22.35
2023-05-21T06:02:50.863Z,21.30
2023-05-21T06:05:17.597Z,22.48
2023-05-21T06:07:44.291Z,22.40
2023-05-21T06:10:10.867Z,21.00
2023-05-21T06:12:37.382Z,21.35
2023-05-21T06:15:04.986Z,21.17
2023-05-21T06:17:31.830Z,20.83
2023-05-21T06:19:58.381Z,21.20
2023-05-21T06:22:26.545Z,21.55
2023-05-21T06:24:53.146Z,21.67
2023-05-21T06:27:20.530Z,21.08
2023-05-21T06:29:47.996Z,20.17
2023-05-21T06:32:14.526Z,19.42
2023-05-21T06:34:41.627Z,20.30
2023-05-21T06:37:08.141Z,20.65
2023-05-21T06:39:34.636Z,20.17
2023-05-21T06:42:01.793Z,19.42
2023-05-21T06:44:44.042Z,17.98
2023-05-21T06:47:16.770Z,18.58
2023-05-21T06:49:43.733Z,18.33
2023-05-21T06:52:11.158Z,17.45
2023-05-21T06:54:38.231Z,18.88
2023-05-21T06:57:05.984Z,18.60
2023-05-21T06:59:32.593Z,18.30
2023-05-21T07:01:59.596Z,17.08
2023-05-21T07:04:26.520Z,17.73
2023-05-21T07:06:53.535Z,16.38
2023-05-21T07:09:20.141Z,17.00
2023-05-21T07:11:47.796Z,17.38
2023-05-21T07:14:16.272Z,17.75
2023-05-21T07:16:42.835Z,16.42
2023-05-21T07:19:09.591Z,16.38
2023-05-21T07:21:36.217Z,16.30
2023-05-21T07:24:02.707Z,16.48
2023-05-21T07:26:29.250Z,17.05
2023-05-21T07:28:55.755Z,15.90
2023-05-21T07:31:22.721Z,16.67
2023-05-21T07:33:51.605Z,15.45
2023-05-21T07:36:21.718Z,16.50
2023-05-21T07:38:48.208Z,15.43
2023-05-21T07:41:16.439Z,15.30
2023-05-21T07:43:44.731Z,15.18
2023-05-21T07:46:11.745Z,14.23
2023-05-21T07:48:38.504Z,14.57
2023-05-21T07:51:05.421Z,14.88
2023-05-21T07:53:33.258Z,14.65
2023-05-21T07:56:03.284Z,14.65
2023-05-21T07:58:31.054Z,14.85
2023-05-21T08:00:58.441Z,14.05
2023-05-21T08:03:26.690Z,13.98
2023-05-21T08:05:53.412Z,13.05
2023-05-21T08:08:20.184Z,14.00
2023-05-21T08:10:47.798Z,12.95
2023-05-21T08:13:15.833Z,13.82
2023-05-21T08:15:42.728Z,13.45
2023-05-21T08:18:09.867Z,12.07
2023-05-21T08:20:36.549Z,12.88
2023-05-21T08:23:03.127Z,13.07
2023-05-21T08:25:37.331Z,12.35
2023-05-21T08:28:04.665Z,12.65
2023-05-21T08:30:31.321Z,12.15
2023-05-21T08:32:58.747Z,11.93
2023-05-21T08:35:26.794Z,12.25
2023-05-21T08:37:57.863Z,12.40
2023-05-21T08:40:47.858Z,11.27
2023-05-21T08:43:16.447Z,11.30
2023-05-21T08:45:45.863Z,11.50
2023-05-21T08:48:13.108Z,11.57
2023-05-21T08:50:41.252Z,11.23
2023-05-21T08:53:23.941Z,10.70
2023-05-21T08:55:58.632Z,10.57
2023-05-21T08:58:37.258Z,10.48
2023-05-21T09:01:04.910Z,11.40
2023-05-21T09:03:33.091Z,10.73
2023-05-21T09:06:00.184Z,10.00
2023-05-21T09:08:32.252Z,10.73
2023-05-21T09:11:05.094Z,10.15
2023-05-21T09:13:39.132Z,10.68
2023-05-21T09:16:12.211Z,10.02
2023-05-21T09:18:38.721Z,10.65
2023-05-21T09:21:28.432Z,9.98
2023-05-21T09:23:59.855Z,9.70
2023-05-21T09:26:26.596Z,9.88
2023-05-21T09:28:57.944Z,10.27
2023-05-21T09:31:24.551Z,10.02
2023-05-21T09:33:51.212Z,9.65
2023-05-21T09:36:20.347Z,8.82
2023-05-21T09:38:51.778Z,8.15
2023-05-21T09:41:21.927Z,9.00
2023-05-21T09:43:49.265Z,7.88
2023-05-21T09:46:16.381Z,8.35
2023-05-21T09:48:43.658Z,8.43
2023-05-21T09:51:18.375Z,7.80
2023-05-21T09:53:48.868Z,8.13
2023-05-21T09:56:15.578Z,9.05
2023-05-21T09:58:42.397Z,7.93
2023-05-21T10:01:10.713Z,7.43
2023-05-21T10:03:39.524Z,6.93
2023-05-21T10:06:08.061Z,6.88
2023-05-21T10:08:37.452Z,6.97
2023-05-21T10:11:05.879Z,7.95
2023-05-21T10:13:34.433Z,7.10
2023-05-21T10:16:03.139Z,7.25
2023-05-21T10:18:30.972Z,7.38
2023-05-21T10:20:58.006Z,6.43
2023-05-21T10:23:24.908Z,6.72
2023-05-21T10:25:52.191Z,6.85
2023-05-21T10:28:19.718Z,6.22
2023-05-21T10:30:46.414Z,6.60
2023-05-21T10:33:16.288Z,6.10
2023-05-21T10:35:42.981Z,6.33
2023-05-21T10:38:09.516Z,5.63
2023-05-21T10:40:36.462Z,47.53
2023-05-21T10:43:35.261Z,5.43
2023-05-21T10:46:37.157Z,5.13
2023-05-21T10:49:13.066Z,4.82
2023-05-21T10:52:06.325Z,5.15
2023-05-21T10:54:48.744Z,5.20
2023-05-21T10:57:42.721Z,5.32
2023-05-21T11:00:10.963Z,5.32
2023-05-21T11:02:38.103Z,4.63
2023-05-21T11:05:05.013Z,4.38
2023-05-21T11:07:51.428Z,4.35
2023-05-21T11:10:30.185Z,4.40
2023-05-21T11:13:13.657Z,4.00
2023-05-21T11:15:58.277Z,8.45
2023-05-21T11:18:30.518Z,4.25
2023-05-21T11:21:10.179Z,4.72
2023-05-21T11:24:02.688Z,4.38
2023-05-21T11:26:47.594Z,4.53
2023-05-21T11:29:14.802Z,4.10
2023-05-21T11:31:48.917Z,4.32
2023-05-21T11:34:19.029Z,4.20
2023-05-21T11:36:47.118Z,4.38
2023-05-21T11:39:23.880Z,4.90
2023-05-21T11:42:03.808Z,5.00
2023-05-21T11:44:47.832Z,4.25
2023-05-21T11:47:21.020Z,5.20
2023-05-21T11:49:48.108Z,5.18
2023-05-21T11:52:14.781Z,4.57
2023-05-21T11:54:46.215Z,5.20
2023-05-21T11:57:17.224Z,5.35
2023-05-21T11:59:44.435Z,5.25
2023-05-21T12:02:16.514Z,4.60
2023-05-21T12:04:43.145Z,4.93
2023-05-21T12:07:10.888Z,4.45
2023-05-21T12:09:58.936Z,4.35
2023-05-21T12:12:27.220Z,5.60
2023-05-21T12:14:58.196Z,5.00
2023-05-21T12:17:26.198Z,4.72
2023-05-21T12:19:54.290Z,4.72
2023-05-21T12:22:21.327Z,5.47
2023-05-21T12:24:48.939Z,4.60
2023-05-21T12:27:16.631Z,4.30
2023-05-21T12:29:44.425Z,4.35
2023-05-21T12:32:12.905Z,5.70
2023-05-21T12:34:52.650Z,4.35
2023-05-21T12:37:26.034Z,4.65
2023-05-21T12:39:56.264Z,4.80
2023-05-21T12:42:27.672Z,4.25
2023-05-21T12:44:54.440Z,4.75
2023-05-21T12:47:23.730Z,4.45
2023-05-21T12:49:53.084Z,4.57
2023-05-21T12:52:21.557Z,4.63
2023-05-21T12:54:52.244Z,4.70
2023-05-21T12:59:59.230Z,5.18
2023-05-21T13:02:29.391Z,4.50
2023-05-21T13:04:59.751Z,4.20
2023-05-21T13:07:28.321Z,4.90
2023-05-21T13:09:55.557Z,5.10
2023-05-21T13:12:26.617Z,5.25
2023-05-21T13:14:54.508Z,4.90
2023-05-21T13:17:21.975Z,4.53
2023-05-21T13:20:12.125Z,4.43
2023-05-21T13:22:49.227Z,4.97
2023-05-21T13:25:21.222Z,5.22
2023-05-21T13:27:51.768Z,4.93
2023-05-21T13:30:19.115Z,5.32
2023-05-21T13:32:45.935Z,4.93
2023-05-21T13:35:12.696Z,4.95
2023-05-21T13:37:40.745Z,5.03
2023-05-21T13:40:11.704Z,5.60
2023-05-21T13:42:38.764Z,5.05
2023-05-21T13:45:10.740Z,4.82
2023-05-21T13:47:40.162Z,4.53
2023-05-21T13:50:08.049Z,5.33
2023-05-21T13:52:34.708Z,4.65
2023-05-21T13:55:01.343Z,4.78
2023-05-21T13:57:30.603Z,4.70
2023-05-21T13:59:57.772Z,4.38
2023-05-21T14:02:24.350Z,4.50
2023-05-21T14:04:50.981Z,4.90
2023-05-21T14:07:17.480Z,4.95
2023-05-21T14:09:44.051Z,4.63
2023-05-21T14:12:10.574Z,4.40
2023-05-21T14:14:37.849Z,4.50
2023-05-21T14:17:04.646Z,4.75
2023-05-21T14:19:31.500Z,4.63
2023-05-21T14:21:59.795Z,5.18
2023-05-21T14:24:26.512Z,4.72
2023-05-21T14:26:53.028Z,5.35
2023-05-21T14:29:19.561Z,4.50
2023-05-21T14:31:46.328Z,4.47
2023-05-21T14:34:12.886Z,4.45
2023-05-21T14:36:39.508Z,4.60
2023-05-21T14:39:06.190Z,4.85
2023-05-21T14:41:32.766Z,4.63
2023-05-21T14:43:59.254Z,4.35
2023-05-21T14:46:25.946Z,4.38
2023-05-21T14:48:52.782Z,4.85
2023-05-21T14:51:19.326Z,5.18
2023-05-21T14:53:45.824Z,5.30
2023-05-21T14:56:12.328Z,4.90
2023-05-21T14:58:38.838Z,5.40
2023-05-21T15:01:05.557Z,5.18
2023-05-21T15:03:32.141Z,4.90
2023-05-21T15:05:58.839Z,4.80
2023-05-21T15:08:25.517Z,4.78
2023-05-21T15:10:52.042Z,5.32
2023-05-21T15:13:18.605Z,4.90
2023-05-21T15:15:45.162Z,5.20
2023-05-21T15:18:11.861Z,4.85
2023-05-21T15:20:38.349Z,4.70
2023-05-21T15:23:16.084Z,4.75
2023-05-21T15:25:43.578Z,4.93
2023-05-21T15:28:11.734Z,4.90
2023-05-21T15:30:38.249Z,4.55
2023-05-21T15:33:04.770Z,5.50
2023-05-21T15:35:31.518Z,5.20
2023-05-21T15:37:58.111Z,4.78
2023-05-21T15:40:26.907Z,4.78
2023-05-21T15:42:53.882Z,4.45
2023-05-21T15:45:20.455Z,4.18
2023-05-21T15:47:46.998Z,4.43
2023-05-21T15:50:13.553Z,4.40
2023-05-21T15:52:41.592Z,4.50
2023-05-21T15:55:08.493Z,4.40
2023-05-21T15:57:35.032Z,4.20
2023-05-21T16:00:01.548Z,4.57
2023-05-21T16:02:28.263Z,4.57
2023-05-21T16:04:54.960Z,4.53
2023-05-21T16:07:23.309Z,4.18
2023-05-21T16:09:49.864Z,4.60
2023-05-21T16:12:16.394Z,4.05
2023-05-21T16:14:42.924Z,4.50
2023-05-21T16:17:11.124Z,4.47
2023-05-21T16:19:38.691Z,4.90
2023-05-21T16:22:05.213Z,4.20
2023-05-21T16:24:31.789Z,3.97
2023-05-21T16:26:58.366Z,4.43
2023-05-21T16:29:24.900Z,4.40
2023-05-21T16:31:51.437Z,4.40
2023-05-21T16:34:17.993Z,3.97
2023-05-21T16:36:44.490Z,4.72
2023-05-21T16:39:11.127Z,4.00
2023-05-21T16:41:37.625Z,3.88
2023-05-21T16:44:04.196Z,4.20
2023-05-21T16:46:30.791Z,3.67
2023-05-21T16:48:57.356Z,3.88
2023-05-21T16:51:23.905Z,4.20
2023-05-21T16:53:50.457Z,3.97
2023-05-21T16:56:17.007Z,4.05
2023-05-21T16:58:43.554Z,3.70
2023-05-21T17:01:10.150Z,4.10
2023-05-21T17:03:36.834Z,4.22
2023-05-21T17:06:03.517Z,4.10
2023-05-21T17:08:30.006Z,3.60
2023-05-21T17:10:56.570Z,4.15
2023-05-21T17:13:23.392Z,3.80
2023-05-21T17:15:53.040Z,3.95
2023-05-21T17:18:19.593Z,3.53
2023-05-21T17:20:46.111Z,3.78
2023-05-21T17:23:12.756Z,3.78
2023-05-21T17:25:40.065Z,3.70
2023-05-21T17:28:07.005Z,4.10
2023-05-21T17:30:33.529Z,3.88
2023-05-21T17:33:02.168Z,3.45
2023-05-21T17:35:29.130Z,4.00
2023-05-21T17:37:55.653Z,4.35
2023-05-21T17:40:24.462Z,4.40
2023-05-21T17:42:52.075Z,4.03
2023-05-21T17:45:18.936Z,3.90
2023-05-21T17:47:45.549Z,3.85
2023-05-21T17:50:12.217Z,4.00
2023-05-21T17:52:38.706Z,3.97
2023-05-21T17:55:05.669Z,3.70
2023-05-21T17:57:32.160Z,3.72
2023-05-21T17:59:58.728Z,4.15
2023-05-21T18:02:25.987Z,3.90
2023-05-21T18:04:52.584Z,4.07
2023-05-21T18:07:19.135Z,3.45
2023-05-21T18:09:45.647Z,4.00
2023-05-21T18:12:12.198Z,3.88
2023-05-21T18:14:38.676Z,3.90
2023-05-21T18:17:05.912Z,4.00
2023-05-21T18:19:32.677Z,4.38
2023-05-21T18:21:59.243Z,4.18
2023-05-21T18:24:25.792Z,3.78
2023-05-21T18:26:52.309Z,3.72
2023-05-21T18:29:18.871Z,4.07
2023-05-21T18:31:45.587Z,4.40
2023-05-21T18:34:12.271Z,4.32
2023-05-21T18:36:39.081Z,3.85
2023-05-21T18:39:06.794Z,3.97
2023-05-21T18:41:33.495Z,4.40
2023-05-21T18:44:01.752Z,4.05
2023-05-21T18:46:31.733Z,4.13
2023-05-21T18:48:59.506Z,3.70
2023-05-21T18:51:26.022Z,4.00
2023-05-21T18:53:52.561Z,3.83
2023-05-21T18:56:19.102Z,4.38
2023-05-21T18:58:45.702Z,3.92
2023-05-21T19:01:12.388Z,3.92
2023-05-21T19:03:39.057Z,3.90
2023-05-21T19:06:05.645Z,3.95
2023-05-21T19:08:32.133Z,3.78
2023-05-21T19:10:58.650Z,3.90
2023-05-21T19:13:25.140Z,3.45
2023-05-21T19:15:52.125Z,3.97
2023-05-21T19:18:18.676Z,3.75
2023-05-21T19:20:45.231Z,4.10
2023-05-21T19:23:11.732Z,3.75
2023-05-21T19:25:38.533Z,3.92
2023-05-21T19:28:05.093Z,4.18
2023-05-21T19:30:33.556Z,3.80
2023-05-21T19:33:00.195Z,4.07
2023-05-21T19:35:26.722Z,3.53
2023-05-21T19:37:54.770Z,3.70
2023-05-21T19:40:22.581Z,4.15
2023-05-21T19:42:49.100Z,3.88
2023-05-21T19:45:15.680Z,3.90
2023-05-21T19:47:43.299Z,4.05
2023-05-21T19:50:10.621Z,4.43
2023-05-21T19:52:37.996Z,4.10
2023-05-21T19:55:06.170Z,4.47
2023-05-21T19:57:32.770Z,4.22
2023-05-21T19:59:59.469Z,4.00
2023-05-21T20:02:26.579Z,4.38
2023-05-21T20:04:56.676Z,4.10
2023-05-21T20:07:23.561Z,5.10
2023-05-21T20:09:50.420Z,3.80
2023-05-21T20:12:17.130Z,4.78
2023-05-21T20:14:46.746Z,4.07
2023-05-21T20:17:14.315Z,3.95
2023-05-21T20:19:41.076Z,4.40
2023-05-21T20:22:07.668Z,3.83
2023-05-21T20:24:34.200Z,4.25
2023-05-21T20:27:01.664Z,4.10
2023-05-21T20:29:28.772Z,3.75
2023-05-21T20:31:55.369Z,3.40
2023-05-21T20:34:21.985Z,4.38
2023-05-21T20:36:48.614Z,3.40
2023-05-21T20:39:15.395Z,3.65
2023-05-21T20:41:44.679Z,4.30
2023-05-21T20:44:11.796Z,3.85
2023-05-21T20:46:38.875Z,3.20
2023-05-21T20:49:05.854Z,3.92
2023-05-21T20:51:32.548Z,3.78
2023-05-21T20:53:59.280Z,3.28
2023-05-21T20:56:40.784Z,3.60
2023-05-21T20:59:10.952Z,3.90
2023-05-21T21:01:38.399Z,3.72
2023-05-21T21:04:05.153Z,3.80
2023-05-21T21:06:31.883Z,3.78
2023-05-21T21:08:58.582Z,3.90
2023-05-21T21:11:25.165Z,3.85
2023-05-21T21:13:51.934Z,3.58
2023-05-21T21:16:18.610Z,3.50
2023-05-21T21:18:46.871Z,4.20
2023-05-21T21:21:13.583Z,3.63
2023-05-21T21:23:40.186Z,3.88
2023-05-21T21:26:07.113Z,3.63
2023-05-21T21:28:33.781Z,4.05
2023-05-21T21:31:00.523Z,4.20
2023-05-21T21:33:27.220Z,3.88
2023-05-21T21:35:53.777Z,3.65
2023-05-21T21:38:20.312Z,4.10
2023-05-21T21:40:46.811Z,4.20
2023-05-21T21:43:13.365Z,3.83
2023-05-21T21:45:39.885Z,3.72
2023-05-21T21:48:06.717Z,3.75
2023-05-21T21:50:33.288Z,3.50
2023-05-21T21:52:59.888Z,3.67
2023-05-21T21:55:26.426Z,3.67
2023-05-21T21:57:52.949Z,3.80
2023-05-21T22:00:19.647Z,4.45
2023-05-21T22:02:49.009Z,4.00
2023-05-21T22:05:15.640Z,3.50
2023-05-21T22:07:48.185Z,3.78
2023-05-21T22:10:16.082Z,3.60
2023-05-21T22:12:44.066Z,3.72
2023-05-21T22:15:37.127Z,3.80
2023-05-21T22:18:03.846Z,3.70
2023-05-21T22:20:30.394Z,3.83
2023-05-21T22:22:57.484Z,4.05
2023-05-21T22:25:24.058Z,3.75
2023-05-21T22:27:51.071Z,3.80
2023-05-21T22:30:18.693Z,3.78
2023-05-21T22:32:47.180Z,3.95
2023-05-21T22:35:13.752Z,4.30
2023-05-21T22:37:40.274Z,3.70
2023-05-21T22:40:07.504Z,4.25
2023-05-21T22:42:35.050Z,4.20
2023-05-21T22:45:01.897Z,4.22
2023-05-21T22:47:28.407Z,3.88
2023-05-21T22:49:54.915Z,3.70
2023-05-21T22:52:21.911Z,3.90
2023-05-21T22:54:48.839Z,3.78
2023-05-21T22:57:15.414Z,3.55
2023-05-21T22:59:41.906Z,3.72
2023-05-21T23:02:08.586Z,3.70
2023-05-21T23:04:43.372Z,3.95
2023-05-21T23:07:11.257Z,3.85
2023-05-21T23:09:37.768Z,3.42
2023-05-21T23:12:04.575Z,4.13
2023-05-21T23:14:31.099Z,3.75
2023-05-21T23:17:01.645Z,4.10
2023-05-21T23:19:29.240Z,3.75
2023-05-21T23:21:56.123Z,3.40
2023-05-21T23:24:22.809Z,4.00
2023-05-21T23:26:49.385Z,3.85
2023-05-21T23:29:15.880Z,3.45
2023-05-21T23:31:42.591Z,3.92
2023-05-21T23:34:09.571Z,4.15
2023-05-21T23:36:36.147Z,3.97
2023-05-21T23:39:02.869Z,3.78
2023-05-21T23:41:29.477Z,3.97
